sensor_id;sensor_type;location;lat;lon;timestamp;temperature;humidity
17599;DHT22;8918;52.092;5.232;2022-11-02T00:00:21;12.60;99.90
17599;DHT22;8918;52.092;5.232;2022-11-02T00:02:47;12.60;99.90
17599;DHT22;8918;52.092;5.232;2022-11-02T00:05:13;12.50;99.90
17599;DHT22;8918;52.092;5.232;2022-11-02T00:07:41;12.50;99.90
17599;DHT22;8918;52.092;5.232;2022-11-02T00:10:07;12.50;99.90
17599;DHT22;8918;52.092;5.232;2022-11-02T00:12:33;12.50;99.90
17599;DHT22;8918;52.092;5.232;2022-11-02T00:14:59;12.50;99.90
17599;DHT22;8918;52.092;5.232;2022-11-02T00:17:25;12.40;99.90
17599;DHT22;8918;52.092;5.232;2022-11-02T00:19:50;12.50;99.90
17599;DHT22;8918;52.092;5.232;2022-11-02T00:22:16;12.50;99.90
17599;DHT22;8918;52.092;5.232;2022-11-02T00:24:42;12.50;99.90
17599;DHT22;8918;52.092;5.232;2022-11-02T00:27:07;12.50;99.90
17599;DHT22;8918;52.092;5.232;2022-11-02T00:29:33;12.50;99.90
17599;DHT22;8918;52.092;5.232;2022-11-02T00:31:59;12.60;99.90
17599;DHT22;8918;52.092;5.232;2022-11-02T00:34:25;12.50;99.90
17599;DHT22;8918;52.092;5.232;2022-11-02T00:36:52;12.60;99.90
17599;DHT22;8918;52.092;5.232;2022-11-02T00:39:18;12.60;99.90
17599;DHT22;8918;52.092;5.232;2022-11-02T00:41:43;12.50;99.90
17599;DHT22;8918;52.092;5.232;2022-11-02T00:44:09;12.60;99.90
17599;DHT22;8918;52.092;5.232;2022-11-02T00:46:34;12.60;99.90
17599;DHT22;8918;52.092;5.232;2022-11-02T00:49:00;12.50;99.90
17599;DHT22;8918;52.092;5.232;2022-11-02T00:51:25;12.60;99.90
17599;DHT22;8918;52.092;5.232;2022-11-02T00:53:51;12.50;99.90
17599;DHT22;8918;52.092;5.232;2022-11-02T00:56:16;12.50;99.90
17599;DHT22;8918;52.092;5.232;2022-11-02T00:58:42;12.50;99.90
17599;DHT22;8918;52.092;5.232;2022-11-02T01:01:08;12.60;99.90
17599;DHT22;8918;52.092;5.232;2022-11-02T01:03:33;12.60;99.90
17599;DHT22;8918;52.092;5.232;2022-11-02T01:06:10;12.70;99.90
17599;DHT22;8918;52.092;5.232;2022-11-02T01:08:37;12.60;99.90
17599;DHT22;8918;52.092;5.232;2022-11-02T01:11:14;12.50;99.90
17599;DHT22;8918;52.092;5.232;2022-11-02T01:13:40;12.40;99.90
17599;DHT22;8918;52.092;5.232;2022-11-02T01:16:07;12.20;99.90
17599;DHT22;8918;52.092;5.232;2022-11-02T01:18:33;12.10;99.90
17599;DHT22;8918;52.092;5.232;2022-11-02T01:20:59;11.90;99.90
17599;DHT22;8918;52.092;5.232;2022-11-02T01:23:25;11.80;99.90
17599;DHT22;8918;52.092;5.232;2022-11-02T01:25:51;11.70;99.90
17599;DHT22;8918;52.092;5.232;2022-11-02T01:28:17;11.70;99.90
17599;DHT22;8918;52.092;5.232;2022-11-02T01:30:45;11.60;99.90
17599;DHT22;8918;52.092;5.232;2022-11-02T01:33:11;11.50;99.90
17599;DHT22;8918;52.092;5.232;2022-11-02T01:35:36;11.50;99.90
17599;DHT22;8918;52.092;5.232;2022-11-02T01:38:02;11.40;99.90
17599;DHT22;8918;52.092;5.232;2022-11-02T01:40:38;11.30;99.90
17599;DHT22;8918;52.092;5.232;2022-11-02T01:43:21;11.30;99.90
17599;DHT22;8918;52.092;5.232;2022-11-02T01:45:53;11.20;99.90
17599;DHT22;8918;52.092;5.232;2022-11-02T01:48:25;11.20;99.90
17599;DHT22;8918;52.092;5.232;2022-11-02T01:50:52;11.20;99.90
17599;DHT22;8918;52.092;5.232;2022-11-02T01:53:18;11.10;99.90
17599;DHT22;8918;52.092;5.232;2022-11-02T01:55:44;11.00;99.90
17599;DHT22;8918;52.092;5.232;2022-11-02T01:58:10;10.90;99.90
17599;DHT22;8918;52.092;5.232;2022-11-02T02:00:37;10.90;99.90
17599;DHT22;8918;52.092;5.232;2022-11-02T02:03:14;10.80;99.90
17599;DHT22;8918;52.092;5.232;2022-11-02T02:05:48;10.80;99.90
17599;DHT22;8918;52.092;5.232;2022-11-02T02:08:19;10.80;99.90
17599;DHT22;8918;52.092;5.232;2022-11-02T02:10:46;10.70;99.90
17599;DHT22;8918;52.092;5.232;2022-11-02T02:13:11;10.70;99.90
17599;DHT22;8918;52.092;5.232;2022-11-02T02:16:14;10.70;99.90
17599;DHT22;8918;52.092;5.232;2022-11-02T02:18:51;10.70;99.90
17599;DHT22;8918;52.092;5.232;2022-11-02T02:21:57;10.80;99.90
17599;DHT22;8918;52.092;5.232;2022-11-02T02:24:48;10.80;99.90
17599;DHT22;8918;52.092;5.232;2022-11-02T02:27:22;10.80;99.90
17599;DHT22;8918;52.092;5.232;2022-11-02T02:30:08;10.80;99.90
17599;DHT22;8918;52.092;5.232;2022-11-02T02:35:22;10.90;99.90
17599;DHT22;8918;52.092;5.232;2022-11-02T02:40:24;11.00;99.90
17599;DHT22;8918;52.092;5.232;2022-11-02T02:42:56;11.00;99.90
17599;DHT22;8918;52.092;5.232;2022-11-02T02:45:32;11.00;99.90
17599;DHT22;8918;52.092;5.232;2022-11-02T02:48:13;11.10;99.90
17599;DHT22;8918;52.092;5.232;2022-11-02T02:50:50;11.10;99.90
17599;DHT22;8918;52.092;5.232;2022-11-02T02:53:27;11.10;99.90
17599;DHT22;8918;52.092;5.232;2022-11-02T02:55:54;11.20;99.90
17599;DHT22;8918;52.092;5.232;2022-11-02T02:58:25;11.20;99.90
17599;DHT22;8918;52.092;5.232;2022-11-02T03:00:52;11.20;99.90
17599;DHT22;8918;52.092;5.232;2022-11-02T03:03:24;11.20;99.90
17599;DHT22;8918;52.092;5.232;2022-11-02T03:06:44;11.20;99.90
17599;DHT22;8918;52.092;5.232;2022-11-02T03:08:51;11.20;99.90
17599;DHT22;8918;52.092;5.232;2022-11-02T03:11:20;11.30;99.90
17599;DHT22;8918;52.092;5.232;2022-11-02T03:14:05;11.40;99.90
17599;DHT22;8918;52.092;5.232;2022-11-02T03:16:54;11.40;99.90
17599;DHT22;8918;52.092;5.232;2022-11-02T03:19:33;11.40;99.90
17599;DHT22;8918;52.092;5.232;2022-11-02T03:22:23;11.40;99.90
17599;DHT22;8918;52.092;5.232;2022-11-02T03:24:57;11.50;99.90
17599;DHT22;8918;52.092;5.232;2022-11-02T03:27:33;11.50;99.90
17599;DHT22;8918;52.092;5.232;2022-11-02T03:30:06;11.50;99.90
17599;DHT22;8918;52.092;5.232;2022-11-02T03:32:44;11.50;99.90
17599;DHT22;8918;52.092;5.232;2022-11-02T03:35:20;11.50;99.90
17599;DHT22;8918;52.092;5.232;2022-11-02T03:37:56;11.50;99.90
17599;DHT22;8918;52.092;5.232;2022-11-02T03:40:30;11.60;99.90
17599;DHT22;8918;52.092;5.232;2022-11-02T03:42:58;11.60;99.90
17599;DHT22;8918;52.092;5.232;2022-11-02T03:45:27;11.60;99.90
17599;DHT22;8918;52.092;5.232;2022-11-02T03:48:00;11.60;99.90
17599;DHT22;8918;52.092;5.232;2022-11-02T03:50:27;11.60;99.90
17599;DHT22;8918;52.092;5.232;2022-11-02T03:53:02;11.60;99.90
17599;DHT22;8918;52.092;5.232;2022-11-02T03:55:52;11.70;99.90
17599;DHT22;8918;52.092;5.232;2022-11-02T03:58:19;11.70;99.90
17599;DHT22;8918;52.092;5.232;2022-11-02T04:01:01;11.70;99.90
17599;DHT22;8918;52.092;5.232;2022-11-02T04:03:29;11.80;99.90
17599;DHT22;8918;52.092;5.232;2022-11-02T04:05:55;11.80;99.90
17599;DHT22;8918;52.092;5.232;2022-11-02T04:08:32;11.80;99.90
17599;DHT22;8918;52.092;5.232;2022-11-02T04:10:58;11.90;99.90
17599;DHT22;8918;52.092;5.232;2022-11-02T04:13:43;11.90;99.90
17599;DHT22;8918;52.092;5.232;2022-11-02T04:16:27;11.90;99.90
17599;DHT22;8918;52.092;5.232;2022-11-02T04:18:52;11.90;99.90
17599;DHT22;8918;52.092;5.232;2022-11-02T04:21:36;11.90;99.90
17599;DHT22;8918;52.092;5.232;2022-11-02T04:24:02;11.90;99.90
17599;DHT22;8918;52.092;5.232;2022-11-02T04:26:46;11.90;99.90
17599;DHT22;8918;52.092;5.232;2022-11-02T04:29:12;12.00;99.90
17599;DHT22;8918;52.092;5.232;2022-11-02T04:31:37;12.00;99.90
17599;DHT22;8918;52.092;5.232;2022-11-02T04:34:03;12.00;99.90
17599;DHT22;8918;52.092;5.232;2022-11-02T04:36:29;12.00;99.90
17599;DHT22;8918;52.092;5.232;2022-11-02T04:38:55;12.00;99.90
17599;DHT22;8918;52.092;5.232;2022-11-02T04:41:22;12.00;99.90
17599;DHT22;8918;52.092;5.232;2022-11-02T04:44:07;11.90;99.90
17599;DHT22;8918;52.092;5.232;2022-11-02T04:46:34;12.00;99.90
17599;DHT22;8918;52.092;5.232;2022-11-02T04:49:00;11.90;99.90
17599;DHT22;8918;52.092;5.232;2022-11-02T04:51:28;12.00;99.90
17599;DHT22;8918;52.092;5.232;2022-11-02T04:53:55;12.00;99.90
17599;DHT22;8918;52.092;5.232;2022-11-02T04:56:22;12.00;99.90
17599;DHT22;8918;52.092;5.232;2022-11-02T04:58:49;11.90;99.90
17599;DHT22;8918;52.092;5.232;2022-11-02T05:01:15;11.90;99.90
17599;DHT22;8918;52.092;5.232;2022-11-02T05:03:41;11.90;99.90
17599;DHT22;8918;52.092;5.232;2022-11-02T05:06:09;11.70;99.90
17599;DHT22;8918;52.092;5.232;2022-11-02T05:08:35;11.60;99.90
17599;DHT22;8918;52.092;5.232;2022-11-02T05:11:01;11.60;99.90
17599;DHT22;8918;52.092;5.232;2022-11-02T05:13:27;11.50;99.90
17599;DHT22;8918;52.092;5.232;2022-11-02T05:15:57;11.50;99.90
17599;DHT22;8918;52.092;5.232;2022-11-02T05:18:23;11.40;99.90
17599;DHT22;8918;52.092;5.232;2022-11-02T05:20:54;11.40;99.90
17599;DHT22;8918;52.092;5.232;2022-11-02T05:23:23;11.30;99.90
17599;DHT22;8918;52.092;5.232;2022-11-02T05:25:56;11.30;99.90
17599;DHT22;8918;52.092;5.232;2022-11-02T05:28:23;11.30;99.90
17599;DHT22;8918;52.092;5.232;2022-11-02T05:30:49;11.30;99.90
17599;DHT22;8918;52.092;5.232;2022-11-02T05:33:15;11.30;99.90
17599;DHT22;8918;52.092;5.232;2022-11-02T05:35:40;11.20;99.90
17599;DHT22;8918;52.092;5.232;2022-11-02T05:38:06;11.20;99.90
17599;DHT22;8918;52.092;5.232;2022-11-02T05:40:32;11.20;99.90
17599;DHT22;8918;52.092;5.232;2022-11-02T05:43:06;11.20;99.90
17599;DHT22;8918;52.092;5.232;2022-11-02T05:45:33;11.30;99.90
17599;DHT22;8918;52.092;5.232;2022-11-02T05:48:00;11.30;99.90
17599;DHT22;8918;52.092;5.232;2022-11-02T05:50:26;11.30;99.90
17599;DHT22;8918;52.092;5.232;2022-11-02T05:52:52;11.30;99.90
17599;DHT22;8918;52.092;5.232;2022-11-02T05:55:18;11.30;99.90
17599;DHT22;8918;52.092;5.232;2022-11-02T05:57:49;11.20;99.90
17599;DHT22;8918;52.092;5.232;2022-11-02T06:00:15;11.20;99.90
17599;DHT22;8918;52.092;5.232;2022-11-02T06:02:41;11.20;99.90
17599;DHT22;8918;52.092;5.232;2022-11-02T06:05:07;11.30;99.90
17599;DHT22;8918;52.092;5.232;2022-11-02T06:07:32;11.30;99.90
17599;DHT22;8918;52.092;5.232;2022-11-02T06:09:58;11.30;99.90
17599;DHT22;8918;52.092;5.232;2022-11-02T06:12:23;11.30;99.90
17599;DHT22;8918;52.092;5.232;2022-11-02T06:14:49;11.30;99.90
17599;DHT22;8918;52.092;5.232;2022-11-02T06:17:14;11.30;99.90
17599;DHT22;8918;52.092;5.232;2022-11-02T06:19:40;11.30;99.90
17599;DHT22;8918;52.092;5.232;2022-11-02T06:22:05;11.30;99.90
17599;DHT22;8918;52.092;5.232;2022-11-02T06:24:31;11.30;99.90
17599;DHT22;8918;52.092;5.232;2022-11-02T06:26:57;11.30;99.90
17599;DHT22;8918;52.092;5.232;2022-11-02T06:29:22;11.20;99.90
17599;DHT22;8918;52.092;5.232;2022-11-02T06:31:48;11.20;99.90
17599;DHT22;8918;52.092;5.232;2022-11-02T06:34:13;11.20;99.90
17599;DHT22;8918;52.092;5.232;2022-11-02T06:36:39;11.10;99.90
17599;DHT22;8918;52.092;5.232;2022-11-02T06:39:04;11.10;99.90
17599;DHT22;8918;52.092;5.232;2022-11-02T06:41:30;11.10;99.90
17599;DHT22;8918;52.092;5.232;2022-11-02T06:43:55;11.00;99.90
17599;DHT22;8918;52.092;5.232;2022-11-02T06:46:21;11.00;99.90
17599;DHT22;8918;52.092;5.232;2022-11-02T06:48:47;11.10;99.90
17599;DHT22;8918;52.092;5.232;2022-11-02T06:51:12;11.00;99.90
17599;DHT22;8918;52.092;5.232;2022-11-02T06:53:38;11.00;99.90
17599;DHT22;8918;52.092;5.232;2022-11-02T06:56:04;11.00;99.90
17599;DHT22;8918;52.092;5.232;2022-11-02T06:58:29;11.00;99.90
17599;DHT22;8918;52.092;5.232;2022-11-02T07:01:00;11.00;99.90
17599;DHT22;8918;52.092;5.232;2022-11-02T07:03:26;11.00;99.90
17599;DHT22;8918;52.092;5.232;2022-11-02T07:05:53;11.00;99.90
17599;DHT22;8918;52.092;5.232;2022-11-02T07:08:19;11.00;99.90
17599;DHT22;8918;52.092;5.232;2022-11-02T07:10:46;11.00;99.90
17599;DHT22;8918;52.092;5.232;2022-11-02T07:13:11;11.00;99.90
17599;DHT22;8918;52.092;5.232;2022-11-02T07:15:37;11.00;99.90
17599;DHT22;8918;52.092;5.232;2022-11-02T07:18:04;11.00;99.90
17599;DHT22;8918;52.092;5.232;2022-11-02T07:20:30;11.00;99.90
17599;DHT22;8918;52.092;5.232;2022-11-02T07:22:58;11.00;99.90
17599;DHT22;8918;52.092;5.232;2022-11-02T07:25:25;10.90;99.90
17599;DHT22;8918;52.092;5.232;2022-11-02T07:27:52;11.00;99.90
17599;DHT22;8918;52.092;5.232;2022-11-02T07:30:18;11.00;99.90
17599;DHT22;8918;52.092;5.232;2022-11-02T07:32:44;10.90;99.90
17599;DHT22;8918;52.092;5.232;2022-11-02T07:35:12;10.90;99.90
17599;DHT22;8918;52.092;5.232;2022-11-02T07:37:38;10.90;99.90
17599;DHT22;8918;52.092;5.232;2022-11-02T07:40:06;10.90;99.90
17599;DHT22;8918;52.092;5.232;2022-11-02T07:42:32;10.90;99.90
17599;DHT22;8918;52.092;5.232;2022-11-02T07:44:58;10.90;99.90
17599;DHT22;8918;52.092;5.232;2022-11-02T07:47:24;10.90;99.90
17599;DHT22;8918;52.092;5.232;2022-11-02T07:49:49;10.90;99.90
17599;DHT22;8918;52.092;5.232;2022-11-02T07:52:15;10.90;99.90
17599;DHT22;8918;52.092;5.232;2022-11-02T07:54:40;10.90;99.90
17599;DHT22;8918;52.092;5.232;2022-11-02T07:57:06;10.90;99.90
17599;DHT22;8918;52.092;5.232;2022-11-02T07:59:31;11.00;99.90
17599;DHT22;8918;52.092;5.232;2022-11-02T08:01:57;11.10;99.90
17599;DHT22;8918;52.092;5.232;2022-11-02T08:04:23;11.10;99.90
17599;DHT22;8918;52.092;5.232;2022-11-02T08:06:49;11.20;99.90
17599;DHT22;8918;52.092;5.232;2022-11-02T08:09:14;11.20;99.90
17599;DHT22;8918;52.092;5.232;2022-11-02T08:11:40;11.30;99.90
17599;DHT22;8918;52.092;5.232;2022-11-02T08:14:06;11.30;99.90
17599;DHT22;8918;52.092;5.232;2022-11-02T08:16:32;11.30;99.90
17599;DHT22;8918;52.092;5.232;2022-11-02T08:18:58;11.30;99.90
17599;DHT22;8918;52.092;5.232;2022-11-02T08:21:24;11.40;99.90
17599;DHT22;8918;52.092;5.232;2022-11-02T08:23:50;11.50;99.90
17599;DHT22;8918;52.092;5.232;2022-11-02T08:26:15;11.60;99.90
17599;DHT22;8918;52.092;5.232;2022-11-02T08:28:41;11.60;99.90
17599;DHT22;8918;52.092;5.232;2022-11-02T08:31:14;11.60;99.90
17599;DHT22;8918;52.092;5.232;2022-11-02T08:33:43;11.60;99.90
17599;DHT22;8918;52.092;5.232;2022-11-02T08:36:09;11.70;99.90
17599;DHT22;8918;52.092;5.232;2022-11-02T08:38:35;11.80;99.90
17599;DHT22;8918;52.092;5.232;2022-11-02T08:41:01;11.80;99.90
17599;DHT22;8918;52.092;5.232;2022-11-02T08:43:27;11.90;99.90
17599;DHT22;8918;52.092;5.232;2022-11-02T08:45:56;12.00;99.90
17599;DHT22;8918;52.092;5.232;2022-11-02T08:48:22;12.00;99.90
17599;DHT22;8918;52.092;5.232;2022-11-02T08:50:47;12.00;99.90
17599;DHT22;8918;52.092;5.232;2022-11-02T08:53:13;12.10;99.90
17599;DHT22;8918;52.092;5.232;2022-11-02T08:55:39;12.20;99.90
17599;DHT22;8918;52.092;5.232;2022-11-02T08:58:05;12.20;99.90
17599;DHT22;8918;52.092;5.232;2022-11-02T09:00:32;12.30;99.90
17599;DHT22;8918;52.092;5.232;2022-11-02T09:03:04;12.40;99.90
17599;DHT22;8918;52.092;5.232;2022-11-02T09:05:36;12.50;99.90
17599;DHT22;8918;52.092;5.232;2022-11-02T09:08:04;12.60;99.90
17599;DHT22;8918;52.092;5.232;2022-11-02T09:10:32;12.70;99.90
17599;DHT22;8918;52.092;5.232;2022-11-02T09:12:59;12.70;99.90
17599;DHT22;8918;52.092;5.232;2022-11-02T09:15:26;12.80;99.90
17599;DHT22;8918;52.092;5.232;2022-11-02T09:17:52;12.90;99.90
17599;DHT22;8918;52.092;5.232;2022-11-02T09:20:19;13.10;99.90
17599;DHT22;8918;52.092;5.232;2022-11-02T09:22:44;13.30;99.90
17599;DHT22;8918;52.092;5.232;2022-11-02T09:25:10;13.40;99.90
17599;DHT22;8918;52.092;5.232;2022-11-02T09:27:36;13.50;99.90
17599;DHT22;8918;52.092;5.232;2022-11-02T09:30:02;13.60;99.90
17599;DHT22;8918;52.092;5.232;2022-11-02T09:32:29;13.70;99.90
17599;DHT22;8918;52.092;5.232;2022-11-02T09:35:02;13.80;99.90
17599;DHT22;8918;52.092;5.232;2022-11-02T09:37:28;14.00;99.90
17599;DHT22;8918;52.092;5.232;2022-11-02T09:39:54;14.00;99.90
17599;DHT22;8918;52.092;5.232;2022-11-02T09:42:41;14.10;99.90
17599;DHT22;8918;52.092;5.232;2022-11-02T09:45:15;14.20;99.90
17599;DHT22;8918;52.092;5.232;2022-11-02T09:47:45;14.30;99.90
17599;DHT22;8918;52.092;5.232;2022-11-02T09:50:21;14.40;99.90
17599;DHT22;8918;52.092;5.232;2022-11-02T09:53:09;14.50;99.90
17599;DHT22;8918;52.092;5.232;2022-11-02T09:55:50;14.50;99.90
17599;DHT22;8918;52.092;5.232;2022-11-02T09:58:21;14.60;99.90
17599;DHT22;8918;52.092;5.232;2022-11-02T10:00:50;14.80;99.90
17599;DHT22;8918;52.092;5.232;2022-11-02T10:06:22;15.00;99.90
17599;DHT22;8918;52.092;5.232;2022-11-02T10:09:08;15.10;99.90
17599;DHT22;8918;52.092;5.232;2022-11-02T10:17:17;16.00;99.90
17599;DHT22;8918;52.092;5.232;2022-11-02T10:19:50;16.00;99.90
17599;DHT22;8918;52.092;5.232;2022-11-02T10:22:18;16.50;99.90
17599;DHT22;8918;52.092;5.232;2022-11-02T10:24:45;16.90;99.90
17599;DHT22;8918;52.092;5.232;2022-11-02T10:27:36;17.00;99.90
17599;DHT22;8918;52.092;5.232;2022-11-02T10:30:20;17.20;99.90
17599;DHT22;8918;52.092;5.232;2022-11-02T10:32:53;17.60;99.90
17599;DHT22;8918;52.092;5.232;2022-11-02T10:41:03;18.40;99.90
17599;DHT22;8918;52.092;5.232;2022-11-02T10:48:56;18.80;99.90
17599;DHT22;8918;52.092;5.232;2022-11-02T10:51:24;18.70;99.90
17599;DHT22;8918;52.092;5.232;2022-11-02T10:53:51;18.70;99.90
17599;DHT22;8918;52.092;5.232;2022-11-02T10:56:29;18.80;99.90
17599;DHT22;8918;52.092;5.232;2022-11-02T11:01:24;18.50;99.90
17599;DHT22;8918;52.092;5.232;2022-11-02T11:04:04;18.50;99.90
17599;DHT22;8918;52.092;5.232;2022-11-02T11:06:35;18.20;99.90
17599;DHT22;8918;52.092;5.232;2022-11-02T11:09:06;17.90;99.90
17599;DHT22;8918;52.092;5.232;2022-11-02T11:11:40;17.70;99.90
17599;DHT22;8918;52.092;5.232;2022-11-02T11:16:39;17.50;99.90
17599;DHT22;8918;52.092;5.232;2022-11-02T11:19:56;17.40;99.90
17599;DHT22;8918;52.092;5.232;2022-11-02T11:24:49;17.50;99.90
17599;DHT22;8918;52.092;5.232;2022-11-02T11:27:22;17.80;99.90
17599;DHT22;8918;52.092;5.232;2022-11-02T11:29:51;17.80;99.90
17599;DHT22;8918;52.092;5.232;2022-11-02T11:32:27;17.70;99.90
17599;DHT22;8918;52.092;5.232;2022-11-02T11:35:02;17.70;99.90
17599;DHT22;8918;52.092;5.232;2022-11-02T11:37:29;17.50;99.90
17599;DHT22;8918;52.092;5.232;2022-11-02T11:40:01;17.30;99.90
17599;DHT22;8918;52.092;5.232;2022-11-02T11:42:31;17.40;99.90
17599;DHT22;8918;52.092;5.232;2022-11-02T11:45:05;17.50;99.90
17599;DHT22;8918;52.092;5.232;2022-11-02T11:47:36;17.60;99.90
17599;DHT22;8918;52.092;5.232;2022-11-02T11:50:09;17.70;99.90
17599;DHT22;8918;52.092;5.232;2022-11-02T11:52:35;17.80;99.90
17599;DHT22;8918;52.092;5.232;2022-11-02T11:55:28;17.80;99.90
17599;DHT22;8918;52.092;5.232;2022-11-02T11:58:23;17.80;99.90
17599;DHT22;8918;52.092;5.232;2022-11-02T12:01:03;17.90;99.90
17599;DHT22;8918;52.092;5.232;2022-11-02T12:03:29;17.80;99.90
17599;DHT22;8918;52.092;5.232;2022-11-02T12:11:30;17.80;99.90
17599;DHT22;8918;52.092;5.232;2022-11-02T12:20:05;17.50;99.90
17599;DHT22;8918;52.092;5.232;2022-11-02T12:31:01;16.80;99.90
17599;DHT22;8918;52.092;5.232;2022-11-02T12:36:39;16.60;99.90
17599;DHT22;8918;52.092;5.232;2022-11-02T12:41:54;16.70;99.90
17599;DHT22;8918;52.092;5.232;2022-11-02T12:44:34;16.70;99.90
17599;DHT22;8918;52.092;5.232;2022-11-02T12:47:34;16.70;99.90
17599;DHT22;8918;52.092;5.232;2022-11-02T12:52:53;16.20;99.90
17599;DHT22;8918;52.092;5.232;2022-11-02T12:55:33;15.90;99.90
17599;DHT22;8918;52.092;5.232;2022-11-02T12:58:04;15.90;99.90
17599;DHT22;8918;52.092;5.232;2022-11-02T13:00:34;16.00;99.90
17599;DHT22;8918;52.092;5.232;2022-11-02T13:03:07;16.00;99.90
17599;DHT22;8918;52.092;5.232;2022-11-02T13:05:43;16.00;99.90
17599;DHT22;8918;52.092;5.232;2022-11-02T13:08:21;16.00;99.90
17599;DHT22;8918;52.092;5.232;2022-11-02T13:10:55;16.00;99.90
17599;DHT22;8918;52.092;5.232;2022-11-02T13:16:07;16.10;99.90
17599;DHT22;8918;52.092;5.232;2022-11-02T13:18:47;16.20;99.90
17599;DHT22;8918;52.092;5.232;2022-11-02T13:21:17;16.20;99.90
17599;DHT22;8918;52.092;5.232;2022-11-02T13:23:48;16.10;99.90
17599;DHT22;8918;52.092;5.232;2022-11-02T13:26:26;16.00;99.90
17599;DHT22;8918;52.092;5.232;2022-11-02T13:29:11;16.00;99.90
17599;DHT22;8918;52.092;5.232;2022-11-02T13:32:01;15.80;99.90
17599;DHT22;8918;52.092;5.232;2022-11-02T13:34:35;15.70;99.90
17599;DHT22;8918;52.092;5.232;2022-11-02T13:37:05;15.60;99.90
17599;DHT22;8918;52.092;5.232;2022-11-02T13:39:38;15.60;99.90
17599;DHT22;8918;52.092;5.232;2022-11-02T13:42:16;15.50;99.90
17599;DHT22;8918;52.092;5.232;2022-11-02T13:44:55;15.50;99.90
17599;DHT22;8918;52.092;5.232;2022-11-02T13:50:16;15.30;99.90
17599;DHT22;8918;52.092;5.232;2022-11-02T13:52:51;15.10;99.90
17599;DHT22;8918;52.092;5.232;2022-11-02T13:58:04;15.10;99.90
17599;DHT22;8918;52.092;5.232;2022-11-02T14:00:39;15.00;99.90
17599;DHT22;8918;52.092;5.232;2022-11-02T14:06:09;15.00;99.90
17599;DHT22;8918;52.092;5.232;2022-11-02T14:08:53;15.10;99.90
17599;DHT22;8918;52.092;5.232;2022-11-02T14:14:04;15.10;99.90
17599;DHT22;8918;52.092;5.232;2022-11-02T14:21:45;15.10;99.90
17599;DHT22;8918;52.092;5.232;2022-11-02T14:46:55;15.00;99.90
17599;DHT22;8918;52.092;5.232;2022-11-02T14:49:25;14.90;99.90
17599;DHT22;8918;52.092;5.232;2022-11-02T14:54:23;15.00;99.90
17599;DHT22;8918;52.092;5.232;2022-11-02T14:59:39;15.00;99.90
17599;DHT22;8918;52.092;5.232;2022-11-02T15:02:21;14.90;99.90
17599;DHT22;8918;52.092;5.232;2022-11-02T15:04:51;14.80;99.90
17599;DHT22;8918;52.092;5.232;2022-11-02T15:10:00;14.70;99.90
17599;DHT22;8918;52.092;5.232;2022-11-02T15:14:57;14.50;99.90
17599;DHT22;8918;52.092;5.232;2022-11-02T15:22:47;14.40;99.90
17599;DHT22;8918;52.092;5.232;2022-11-02T15:25:32;14.30;99.90
17599;DHT22;8918;52.092;5.232;2022-11-02T15:28:13;14.30;99.90
17599;DHT22;8918;52.092;5.232;2022-11-02T15:30:43;14.20;99.90
17599;DHT22;8918;52.092;5.232;2022-11-02T15:33:35;14.20;99.90
17599;DHT22;8918;52.092;5.232;2022-11-02T15:36:01;14.10;99.90
17599;DHT22;8918;52.092;5.232;2022-11-02T15:38:28;14.00;99.90
17599;DHT22;8918;52.092;5.232;2022-11-02T15:41:14;13.90;99.90
17599;DHT22;8918;52.092;5.232;2022-11-02T15:46:49;13.80;99.90
17599;DHT22;8918;52.092;5.232;2022-11-02T15:53:02;13.70;99.90
17599;DHT22;8918;52.092;5.232;2022-11-02T16:01:30;13.60;99.90
17599;DHT22;8918;52.092;5.232;2022-11-02T16:04:02;13.60;99.90
17599;DHT22;8918;52.092;5.232;2022-11-02T16:08:59;13.50;99.90
17599;DHT22;8918;52.092;5.232;2022-11-02T16:11:26;13.40;99.90
17599;DHT22;8918;52.092;5.232;2022-11-02T16:14:14;13.40;99.90
17599;DHT22;8918;52.092;5.232;2022-11-02T16:16:47;13.30;99.90
17599;DHT22;8918;52.092;5.232;2022-11-02T16:19:19;13.30;99.90
17599;DHT22;8918;52.092;5.232;2022-11-02T16:21:46;13.30;99.90
17599;DHT22;8918;52.092;5.232;2022-11-02T16:24:12;13.30;99.90
17599;DHT22;8918;52.092;5.232;2022-11-02T16:26:38;13.30;99.90
17599;DHT22;8918;52.092;5.232;2022-11-02T16:29:07;13.30;99.90
17599;DHT22;8918;52.092;5.232;2022-11-02T16:31:33;13.30;99.90
17599;DHT22;8918;52.092;5.232;2022-11-02T16:34:31;13.20;99.90
17599;DHT22;8918;52.092;5.232;2022-11-02T16:36:58;13.20;99.90
17599;DHT22;8918;52.092;5.232;2022-11-02T16:39:27;13.10;99.90
17599;DHT22;8918;52.092;5.232;2022-11-02T16:41:57;13.10;99.90
17599;DHT22;8918;52.092;5.232;2022-11-02T16:44:27;13.00;99.90
17599;DHT22;8918;52.092;5.232;2022-11-02T16:46:59;12.90;99.90
17599;DHT22;8918;52.092;5.232;2022-11-02T16:49:28;12.90;99.90
17599;DHT22;8918;52.092;5.232;2022-11-02T16:51:55;12.80;99.90
17599;DHT22;8918;52.092;5.232;2022-11-02T16:57:14;12.90;99.90
17599;DHT22;8918;52.092;5.232;2022-11-02T16:59:58;12.90;99.90
17599;DHT22;8918;52.092;5.232;2022-11-02T17:02:37;12.90;99.90
17599;DHT22;8918;52.092;5.232;2022-11-02T17:05:04;12.90;99.90
17599;DHT22;8918;52.092;5.232;2022-11-02T17:07:39;12.80;99.90
17599;DHT22;8918;52.092;5.232;2022-11-02T17:10:06;12.80;99.90
17599;DHT22;8918;52.092;5.232;2022-11-02T17:12:33;12.70;99.90
17599;DHT22;8918;52.092;5.232;2022-11-02T17:15:02;12.70;99.90
17599;DHT22;8918;52.092;5.232;2022-11-02T17:17:39;12.70;99.90
17599;DHT22;8918;52.092;5.232;2022-11-02T17:20:13;12.70;99.90
17599;DHT22;8918;52.092;5.232;2022-11-02T17:22:57;12.70;99.90
17599;DHT22;8918;52.092;5.232;2022-11-02T17:28:15;12.70;99.90
17599;DHT22;8918;52.092;5.232;2022-11-02T17:30:46;12.60;99.90
17599;DHT22;8918;52.092;5.232;2022-11-02T17:33:22;12.60;99.90
17599;DHT22;8918;52.092;5.232;2022-11-02T17:35:50;12.70;99.90
17599;DHT22;8918;52.092;5.232;2022-11-02T17:38:17;12.70;99.90
17599;DHT22;8918;52.092;5.232;2022-11-02T17:40:43;12.60;99.90
17599;DHT22;8918;52.092;5.232;2022-11-02T17:43:09;12.60;99.90
17599;DHT22;8918;52.092;5.232;2022-11-02T17:45:38;12.60;99.90
17599;DHT22;8918;52.092;5.232;2022-11-02T17:48:05;12.60;99.90
17599;DHT22;8918;52.092;5.232;2022-11-02T17:50:33;12.60;99.90
17599;DHT22;8918;52.092;5.232;2022-11-02T17:53:00;12.70;99.90
17599;DHT22;8918;52.092;5.232;2022-11-02T17:55:28;12.70;99.90
17599;DHT22;8918;52.092;5.232;2022-11-02T17:57:54;12.70;99.90
17599;DHT22;8918;52.092;5.232;2022-11-02T18:00:20;12.80;99.90
17599;DHT22;8918;52.092;5.232;2022-11-02T18:02:49;12.80;99.90
17599;DHT22;8918;52.092;5.232;2022-11-02T18:05:27;12.80;99.90
17599;DHT22;8918;52.092;5.232;2022-11-02T18:07:55;12.80;99.90
17599;DHT22;8918;52.092;5.232;2022-11-02T18:10:26;12.70;99.90
17599;DHT22;8918;52.092;5.232;2022-11-02T18:12:52;12.60;99.90
17599;DHT22;8918;52.092;5.232;2022-11-02T18:15:20;12.60;99.90
17599;DHT22;8918;52.092;5.232;2022-11-02T18:17:46;12.70;99.90
17599;DHT22;8918;52.092;5.232;2022-11-02T18:20:13;12.70;99.90
17599;DHT22;8918;52.092;5.232;2022-11-02T18:22:39;12.70;99.90
17599;DHT22;8918;52.092;5.232;2022-11-02T18:25:11;12.70;99.90